Time;durP1;ratioP1;P1;durP2;ratioP2;P2;SDS_P1;SDS_P2;PMS_P1;PMS_P2;Temp;Humidity;BMP_temperature;BMP_pressure;BME280_temperature;BME280_humidity;BME280_pressure;Samples;Min_cycle;Max_cycle;Signal;HPM_P1;HPM_P2
2021/08/20 00:00:47;;;;;;;8.13;3.20;;;;;;;14.96;100.00;95042.13;5032515;28;20025;-54
2021/08/20 00:03:12;;;;;;;;;;;;;;;14.94;100.00;95040.81;5032924;28;20063;-55
2021/08/20 00:05:44;;;;;;;4.17;3.10;;;;;;;14.92;100.00;95048.41;5032595;28;19934;-56
2021/08/20 00:08:12;;;;;;;3.88;3.13;;;;;;;14.91;100.00;95046.81;5032365;28;20444;-56
2021/08/20 00:10:40;;;;;;;4.95;3.38;;;;;;;14.88;100.00;95042.00;5031116;28;20036;-57
2021/08/20 00:13:06;;;;;;;4.68;3.05;;;;;;;14.83;100.00;95048.25;5032412;28;20039;-55
2021/08/20 00:15:34;;;;;;;5.30;3.45;;;;;;;14.78;100.00;95051.06;5032268;28;20017;-57
2021/08/20 00:17:59;;;;;;;5.78;3.42;;;;;;;14.75;100.00;95051.59;5030913;28;20029;-57
2021/08/20 00:20:26;;;;;;;4.53;3.55;;;;;;;14.70;100.00;95055.19;5031167;28;20022;-57
2021/08/20 00:22:51;;;;;;;5.15;3.42;;;;;;;14.65;100.00;95052.59;5032253;28;20084;-57
2021/08/20 00:25:16;;;;;;;4.10;3.20;;;;;;;14.59;100.00;95053.72;5032294;28;20476;-57
2021/08/20 00:27:48;;;;;;;4.47;3.30;;;;;;;14.55;100.00;95060.81;5032097;28;20028;-57
2021/08/20 00:30:13;;;;;;;5.57;3.47;;;;;;;14.49;100.00;95059.25;5030850;28;20053;-57
2021/08/20 00:32:39;;;;;;;3.20;2.70;;;;;;;14.42;100.00;95059.56;5032138;28;20032;-57
2021/08/20 00:35:05;;;;;;;6.45;3.83;;;;;;;14.37;100.00;95056.94;5032149;28;20151;-57
2021/08/20 00:37:33;;;;;;;4.85;3.33;;;;;;;14.32;100.00;95057.00;5032025;28;20477;-57
2021/08/20 00:40:06;;;;;;;4.47;3.38;;;;;;;14.25;100.00;95059.25;5032187;28;20551;-55
2021/08/20 00:42:37;;;;;;;5.60;3.65;;;;;;;14.18;100.00;95062.28;5034294;28;20047;-57
2021/08/20 00:45:06;;;;;;;4.50;3.17;;;;;;;14.15;100.00;95054.78;5036179;28;20487;-53
2021/08/20 00:47:37;;;;;;;5.57;3.47;;;;;;;14.12;100.00;95055.38;5034627;28;20053;-56
2021/08/20 00:50:07;;;;;;;3.85;3.38;;;;;;;14.11;100.00;95059.16;5036028;28;20029;-57
2021/08/20 00:52:35;;;;;;;4.32;3.30;;;;;;;14.08;100.00;95051.63;5036094;28;20447;-56
2021/08/20 00:55:03;;;;;;;4.68;3.38;;;;;;;14.04;100.00;95055.22;5035864;28;20040;-56
2021/08/20 00:57:32;;;;;;;5.68;3.50;;;;;;;14.01;100.00;95045.81;5034526;28;20035;-55
2021/08/20 00:59:57;;;;;;;5.28;3.40;;;;;;;13.98;100.00;95046.38;5035782;28;20033;-52
2021/08/20 01:02:26;;;;;;;10.13;3.50;;;;;;;13.93;100.00;95044.53;5035897;28;20032;-52
2021/08/20 01:05:10;;;;;;;4.43;3.35;;;;;;;13.82;100.00;95040.38;5035586;28;20036;-56
2021/08/20 01:07:37;;;;;;;5.28;3.65;;;;;;;13.76;100.00;95044.19;5035672;28;20032;-55
2021/08/20 01:10:07;;;;;;;4.75;3.90;;;;;;;13.70;100.00;95045.34;5030953;28;20022;-57
2021/08/20 01:12:36;;;;;;;4.47;3.67;;;;;;;13.62;100.00;95037.88;5025554;28;20025;-57
2021/08/20 01:15:05;;;;;;;5.30;3.20;;;;;;;13.52;100.00;95036.09;5035524;28;20434;-57
2021/08/20 01:17:38;;;;;;;5.22;3.28;;;;;;;13.46;100.00;95037.25;5035399;28;20432;-57
2021/08/20 01:20:10;;;;;;;5.57;3.58;;;;;;;13.39;100.00;95027.88;5034119;28;20104;-56
2021/08/20 01:22:36;;;;;;;4.60;3.53;;;;;;;13.42;100.00;95038.88;5035336;28;20132;-59
2021/08/20 01:25:03;;;;;;;4.63;3.47;;;;;;;13.34;100.00;95032.22;5035253;28;20546;-55
2021/08/20 01:27:32;;;;;;;5.65;3.45;;;;;;;13.28;100.00;95037.94;5035306;28;20112;-57
2021/08/20 01:29:58;;;;;;;5.20;3.70;;;;;;;13.26;100.00;95029.34;5035273;28;20152;-57
2021/08/20 01:32:29;;;;;;;8.25;3.60;;;;;;;13.27;100.00;95026.38;5035194;28;20120;-57
2021/08/20 01:34:54;;;;;;;4.47;3.80;;;;;;;13.29;100.00;95013.44;5035135;28;20025;-55
2021/08/20 01:37:30;;;;;;;5.25;3.70;;;;;;;13.29;100.00;95005.38;5033828;28;20029;-55
2021/08/20 01:39:55;;;;;;;5.85;3.20;;;;;;;13.32;100.00;94996.72;5035252;28;20041;-57
2021/08/20 01:42:24;;;;;;;4.13;3.30;;;;;;;13.36;100.00;94993.50;5034891;28;20021;-55
2021/08/20 01:44:52;;;;;;;7.60;3.67;;;;;;;13.33;100.00;94984.88;5035128;28;20021;-57
2021/08/20 01:47:20;;;;;;;8.32;3.45;;;;;;;13.34;100.00;94985.69;5033399;28;20387;-57
2021/08/20 01:49:48;;;;;;;6.93;3.65;;;;;;;13.33;100.00;94974.13;5034851;28;20045;-58
2021/08/20 01:52:16;;;;;;;5.70;3.67;;;;;;;13.32;100.00;94963.66;5033579;28;20036;-58
2021/08/20 01:54:47;;;;;;;5.82;3.33;;;;;;;13.32;100.00;94955.56;5034817;28;20036;-57
2021/08/20 01:57:18;;;;;;;4.97;3.60;;;;;;;13.33;100.00;94960.66;5033427;28;20392;-56
2021/08/20 01:59:44;;;;;;;4.30;3.45;;;;;;;13.32;100.00;94951.00;5034787;28;20036;-56
2021/08/20 02:02:11;;;;;;;4.18;3.60;;;;;;;13.32;100.00;94947.50;5034572;28;20021;-57
2021/08/20 02:04:43;;;;;;;4.43;3.47;;;;;;;13.28;100.00;94941.91;5034638;28;20025;-55
2021/08/20 02:07:11;;;;;;;7.32;3.80;;;;;;;13.25;100.00;94937.09;5034691;28;20025;-52
2021/08/20 02:09:51;;;;;;;4.00;3.60;;;;;;;13.21;100.00;94944.13;5033290;28;20021;-53
2021/08/20 02:12:17;;;;;;;4.85;3.40;;;;;;;13.18;100.00;94938.47;5034601;28;20168;-53
2021/08/20 02:14:42;;;;;;;4.90;3.67;;;;;;;13.16;100.00;94922.63;5033013;28;20396;-55
2021/08/20 02:17:17;;;;;;;4.55;3.67;;;;;;;13.11;100.00;94921.88;5033255;28;20049;-53
2021/08/20 02:19:47;;;;;;;5.30;3.35;;;;;;;13.05;100.00;94921.94;5034353;28;20060;-54
2021/08/20 02:22:18;;;;;;;5.75;3.58;;;;;;;13.03;100.00;94912.56;5034341;28;20033;-54
2021/08/20 02:24:46;;;;;;;5.55;3.97;;;;;;;13.00;100.00;94919.28;5034473;28;20095;-54
2021/08/20 02:27:15;;;;;;;4.28;3.20;;;;;;;12.95;100.00;94911.28;5034113;28;20029;-56
2021/08/20 02:29:40;;;;;;;4.63;3.40;;;;;;;12.90;100.00;94910.50;5034352;28;20432;-57
2021/08/20 02:32:06;;;;;;;5.18;3.83;;;;;;;12.87;100.00;94908.41;5034291;28;20060;-56
2021/08/20 02:34:31;;;;;;;4.28;3.35;;;;;;;12.83;100.00;94902.78;5032810;28;20116;-57
2021/08/20 02:37:07;;;;;;;5.20;3.78;;;;;;;12.77;100.00;94902.03;5034068;28;20028;-56
2021/08/20 02:39:33;;;;;;;7.93;3.55;;;;;;;12.77;100.00;94901.22;5034018;28;20029;-58
2021/08/20 02:42:01;;;;;;;5.93;3.63;;;;;;;12.70;100.00;94896.19;5034002;28;20455;-59
2021/08/20 02:44:46;;;;;;;4.95;3.40;;;;;;;12.68;100.00;94897.53;5034027;28;20029;-56
2021/08/20 02:47:11;;;;;;;5.18;3.60;;;;;;;12.59;100.00;94888.47;5033696;28;20046;-55
2021/08/20 02:49:51;;;;;;;7.32;3.50;;;;;;;12.54;100.00;94894.72;5032644;28;20072;-56
2021/08/20 02:52:21;;;;;;;4.60;3.55;;;;;;;12.51;100.00;94892.59;5032487;28;20029;-54
2021/08/20 02:54:46;;;;;;;6.57;4.00;;;;;;;12.47;100.00;94889.66;5033709;28;20036;-54
2021/08/20 02:57:27;;;;;;;6.90;3.72;;;;;;;12.43;100.00;94875.19;5033721;28;20025;-57
2021/08/20 02:59:52;;;;;;;4.55;3.47;;;;;;;12.42;100.00;94876.28;5032351;28;20030;-57
2021/08/20 03:02:21;;;;;;;6.50;3.88;;;;;;;12.41;100.00;94868.50;5032647;28;20029;-57
2021/08/20 03:04:52;;;;;;;6.63;4.10;;;;;;;12.39;100.00;94863.41;5029072;28;20502;-54
2021/08/20 03:07:20;;;;;;;4.75;3.40;;;;;;;12.40;100.00;94862.31;5033561;28;20037;-55
2021/08/20 03:09:56;;;;;;;4.25;3.80;;;;;;;12.41;100.00;94855.88;5033319;28;20037;-57
2021/08/20 03:12:22;;;;;;;4.18;3.60;;;;;;;12.44;100.00;94847.25;5033477;28;20032;-53
2021/08/20 03:14:47;;;;;;;6.45;4.35;;;;;;;12.44;100.00;94843.75;5033246;28;20029;-54
2021/08/20 03:17:26;;;;;;;6.65;4.18;;;;;;;12.42;100.00;94830.59;5032170;28;20127;-55
2021/08/20 03:20:04;;;;;;;6.25;4.32;;;;;;;12.43;100.00;94836.78;5033411;28;20384;-52
2021/08/20 03:22:35;;;;;;;7.05;4.40;;;;;;;12.41;100.00;94828.22;5033082;28;20036;-52
2021/08/20 03:25:04;;;;;;;5.00;4.00;;;;;;;12.41;100.00;94822.84;5032277;28;20067;-53
2021/08/20 03:27:30;;;;;;;11.70;4.55;;;;;;;12.39;100.00;94825.00;5032889;28;20021;-56
2021/08/20 03:29:57;;;;;;;6.50;4.40;;;;;;;12.40;100.00;94818.56;5033081;28;20028;-49
2021/08/20 03:32:25;;;;;;;6.85;4.22;;;;;;;12.45;100.00;94813.91;5033007;28;20041;-54
2021/08/20 03:35:00;;;;;;;6.20;4.18;;;;;;;12.49;100.00;94811.50;5032890;28;20388;-51
2021/08/20 03:37:26;;;;;;;7.43;4.55;;;;;;;12.48;100.00;94808.00;5032883;28;20033;-55
2021/08/20 03:39:54;;;;;;;4.90;4.00;;;;;;;12.52;100.00;94816.28;5032860;28;20021;-51
2021/08/20 03:42:24;;;;;;;4.93;3.75;;;;;;;12.50;100.00;94804.22;5032786;28;20112;-56
2021/08/20 03:44:50;;;;;;;6.85;4.43;;;;;;;12.52;100.00;94808.22;5032894;28;20071;-53
2021/08/20 03:47:15;;;;;;;4.95;3.97;;;;;;;12.55;100.00;94804.97;5031312;28;20034;-55
2021/08/20 03:49:47;;;;;;;6.05;4.22;;;;;;;12.58;100.00;94792.84;5033119;28;20068;-54
2021/08/20 03:52:14;;;;;;;6.28;4.25;;;;;;;12.59;100.00;94795.28;5032591;28;20030;-57
2021/08/20 03:54:47;;;;;;;6.93;4.22;;;;;;;12.61;100.00;94795.78;5032441;28;20036;-57
2021/08/20 03:57:17;;;;;;;5.85;4.38;;;;;;;12.60;100.00;94794.19;5031340;28;20033;-55
2021/08/20 03:59:43;;;;;;;5.80;3.78;;;;;;;12.63;100.00;94787.44;5032651;28;20033;-56
2021/08/20 04:02:08;;;;;;;6.72;4.40;;;;;;;12.59;100.00;94787.22;5032485;28;20064;-57
2021/08/20 04:04:34;;;;;;;6.15;4.47;;;;;;;12.60;100.00;94794.19;5031260;28;20033;-58
2021/08/20 04:06:59;;;;;;;5.68;4.13;;;;;;;12.61;100.00;94793.09;5032364;28;20018;-53
2021/08/20 04:09:24;;;;;;;5.20;3.92;;;;;;;12.63;100.00;94790.91;5032460;28;20021;-51
2021/08/20 04:11:55;;;;;;;6.88;4.47;;;;;;;12.64;100.00;94794.41;5031119;28;20025;-51
2021/08/20 04:14:21;;;;;;;8.55;4.35;;;;;;;12.66;100.00;94786.84;5032447;28;20484;-57
2021/08/20 04:16:46;;;;;;;6.70;4.28;;;;;;;12.68;100.00;94788.16;5031308;28;20083;-51
2021/08/20 04:19:11;;;;;;;8.90;4.40;;;;;;;12.70;100.00;94785.22;5032283;28;20033;-52
2021/08/20 04:21:38;;;;;;;6.72;4.28;;;;;;;12.72;100.00;94789.22;5032039;28;20033;-52
2021/08/20 04:24:08;;;;;;;5.75;4.00;;;;;;;12.71;100.00;94782.25;5031220;28;20033;-51
2021/08/20 04:26:36;;;;;;;10.38;4.30;;;;;;;12.78;100.00;94777.31;5032177;28;20017;-51
2021/08/20 04:29:02;;;;;;;6.63;4.50;;;;;;;12.83;100.00;94783.72;5032229;28;20036;-53
2021/08/20 04:31:34;;;;;;;5.57;4.13;;;;;;;12.84;100.00;94782.66;5031026;28;20021;-52
2021/08/20 04:34:00;;;;;;;6.18;4.32;;;;;;;12.82;100.00;94780.25;5032139;28;20434;-55
2021/08/20 04:36:32;;;;;;;5.15;3.92;;;;;;;12.83;100.00;94789.91;5030800;28;20022;-56
2021/08/20 04:39:00;;;;;;;5.22;4.03;;;;;;;12.83;100.00;94797.16;5032246;28;20488;-54
2021/08/20 04:41:29;;;;;;;10.43;4.10;;;;;;;12.86;100.00;94788.53;5032173;28;20021;-57
2021/08/20 04:43:56;;;;;;;5.97;3.58;;;;;;;12.90;100.00;94784.97;5030852;28;20044;-56
2021/08/20 04:46:29;;;;;;;7.10;4.28;;;;;;;12.95;100.00;94781.44;5032105;28;20108;-56
2021/08/20 04:48:55;;;;;;;;;;;;;;;12.99;100.00;94785.16;5031509;28;20045;-56
2021/08/20 04:51:20;;;;;;;7.07;3.90;;;;;;;13.04;100.00;94785.09;5032129;28;19920;-58
2021/08/20 04:53:51;;;;;;;5.28;4.07;;;;;;;13.03;100.00;94778.94;5030598;28;20594;-58
2021/08/20 04:56:17;;;;;;;6.82;3.95;;;;;;;13.04;100.00;94788.59;5031770;28;20384;-58
2021/08/20 04:58:47;;;;;;;6.50;3.90;;;;;;;13.05;100.00;94784.00;5031807;28;20032;-58
2021/08/20 05:01:13;;;;;;;6.40;3.83;;;;;;;13.05;100.00;94781.31;5031911;28;20426;-57
2021/08/20 05:03:38;;;;;;;6.88;4.35;;;;;;;13.04;100.00;94785.09;5027183;28;20559;-56
2021/08/20 05:06:07;;;;;;;7.20;4.10;;;;;;;13.01;100.00;94782.97;5023312;28;20121;-58
2021/08/20 05:08:35;;;;;;;7.07;4.18;;;;;;;13.05;100.00;94786.69;5031552;28;20025;-56
2021/08/20 05:11:00;;;;;;;9.65;5.95;;;;;;;13.07;100.00;94784.53;5031865;28;20121;-54
2021/08/20 05:13:25;;;;;;;7.30;4.85;;;;;;;13.13;100.00;94780.66;5030291;28;20026;-53
2021/08/20 05:15:51;;;;;;;7.60;4.45;;;;;;;13.16;100.00;94787.38;5030200;28;20028;-56
2021/08/20 05:18:24;;;;;;;6.03;4.38;;;;;;;13.18;100.00;94786.00;5026976;28;20045;-53
2021/08/20 05:20:58;;;;;;;;;;;;;;;13.22;100.00;94781.66;5040782;28;20091;-57
2021/08/20 05:23:24;;;;;;;9.88;4.13;;;;;;;13.30;100.00;94796.38;5031962;28;20502;-53
2021/08/20 05:25:49;;;;;;;6.82;4.60;;;;;;;13.34;100.00;94789.31;5031501;28;20025;-56
2021/08/20 05:28:14;;;;;;;5.55;4.38;;;;;;;13.40;100.00;94790.84;5029888;28;20018;-58
2021/08/20 05:30:42;;;;;;;8.13;4.65;;;;;;;13.45;100.00;94792.66;5030417;28;20030;-58
2021/08/20 05:33:10;;;;;;;8.48;4.97;;;;;;;13.51;100.00;94795.00;5046580;28;20030;-55
2021/08/20 05:35:35;;;;;;;6.25;5.20;;;;;;;13.58;100.00;94794.66;5050295;28;20476;-52
2021/08/20 05:38:02;;;;;;;8.90;5.43;;;;;;;13.66;100.00;94793.19;5038528;28;20039;-55
2021/08/20 05:40:30;;;;;;;7.15;4.93;;;;;;;13.71;100.00;94793.94;4979034;28;20096;-55
2021/08/20 05:43:03;;;;;;;7.55;4.68;;;;;;;13.83;100.00;94783.53;5031706;28;20034;-57
2021/08/20 05:45:29;;;;;;;10.45;4.80;;;;;;;13.88;100.00;94774.56;5031309;28;20115;-56
2021/08/20 05:47:54;;;;;;;7.47;5.13;;;;;;;13.95;100.00;94771.50;5029658;28;20045;-58
2021/08/20 05:50:20;;;;;;;9.38;5.47;;;;;;;14.01;100.00;94778.41;5029802;28;20026;-56
2021/08/20 05:52:45;;;;;;;10.98;5.47;;;;;;;14.09;100.00;94765.06;5033945;28;20388;-56
2021/08/20 05:55:12;;;;;;;8.48;5.68;;;;;;;14.26;100.00;94766.41;5032952;28;20387;-58
2021/08/20 05:57:43;;;;;;;11.45;5.80;;;;;;;14.44;100.00;94771.78;5036685;28;20041;-55
2021/08/20 06:00:11;;;;;;;10.50;5.35;;;;;;;14.56;100.00;94765.13;5032339;28;20032;-57
2021/08/20 06:02:42;;;;;;;7.70;5.35;;;;;;;14.63;100.00;94750.16;5036521;28;20127;-57
2021/08/20 06:05:16;;;;;;;8.98;5.10;;;;;;;14.70;100.00;94757.84;5030462;28;20480;-56
2021/08/20 06:07:50;;;;;;;7.13;4.60;;;;;;;14.76;100.00;94752.06;5037557;28;20480;-57
2021/08/20 06:10:19;;;;;;;8.75;5.20;;;;;;;14.87;100.00;94747.28;5025602;28;20112;-59
2021/08/20 06:12:51;;;;;;;10.88;5.22;;;;;;;14.96;100.00;94758.16;5029620;28;20021;-59
2021/08/20 06:15:16;;;;;;;8.93;4.93;;;;;;;14.99;100.00;94752.19;5032356;28;20013;-57
2021/08/20 06:17:46;;;;;;;6.07;4.45;;;;;;;15.05;100.00;94759.84;5034112;28;20033;-59
2021/08/20 06:20:12;;;;;;;7.22;5.22;;;;;;;15.11;100.00;94755.16;5024370;28;20017;-59
2021/08/20 06:22:40;;;;;;;6.90;4.45;;;;;;;15.20;100.00;94756.06;5031403;28;20021;-59
2021/08/20 06:25:06;;;;;;;7.65;4.90;;;;;;;15.32;100.00;94758.25;5032707;28;20499;-57
2021/08/20 06:27:32;;;;;;;6.55;4.30;;;;;;;15.40;100.00;94756.72;5031852;28;20021;-59
2021/08/20 06:29:57;;;;;;;9.27;4.60;;;;;;;15.49;100.00;94763.00;5030924;28;20032;-59
2021/08/20 06:32:26;;;;;;;6.90;4.90;;;;;;;15.65;100.00;94767.78;5034700;28;20100;-58
2021/08/20 06:34:51;;;;;;;6.07;4.20;;;;;;;15.77;100.00;94758.34;5031470;28;20025;-59
2021/08/20 06:37:19;;;;;;;5.10;4.15;;;;;;;16.00;100.00;94764.56;5034415;28;20396;-59
2021/08/20 06:39:48;;;;;;;8.40;4.53;;;;;;;16.13;100.00;94761.81;5044178;28;20021;-56
2021/08/20 06:42:18;;;;;;;6.00;4.25;;;;;;;16.42;100.00;94755.16;5030049;28;20029;-59
2021/08/20 06:44:44;;;;;;;6.43;4.20;;;;;;;16.66;100.00;94747.50;5033802;28;20037;-59
2021/08/20 06:47:09;;;;;;;4.43;3.83;;;;;;;17.07;100.00;94746.41;5032752;28;20404;-59
2021/08/20 06:49:37;;;;;;;5.70;3.95;;;;;;;17.55;100.00;94727.41;5033644;28;20026;-59
2021/08/20 06:52:03;;;;;;;4.30;3.47;;;;;;;18.06;100.00;94698.75;5032467;28;20502;-59
2021/08/20 06:54:31;;;;;;;5.63;3.28;;;;;;;18.53;100.00;94666.25;5033520;28;20105;-59
2021/08/20 06:57:05;;;;;;;3.67;2.90;;;;;;;18.94;100.00;94622.19;5033445;28;20075;-59
2021/08/20 06:59:30;;;;;;;5.03;3.10;;;;;;;19.29;100.00;94581.22;5033608;28;20108;-59
2021/08/20 07:01:55;;;;;;;4.18;2.80;;;;;;;19.72;100.00;94544.75;5033413;28;20503;-59
2021/08/20 07:04:24;;;;;;;4.38;2.90;;;;;;;20.00;100.00;94540.31;5031881;28;20026;-59
2021/08/20 07:06:52;;;;;;;4.97;3.13;;;;;;;20.20;100.00;94565.81;5033288;28;20028;-59
2021/08/20 07:09:29;;;;;;;5.75;3.35;;;;;;;20.36;100.00;94588.50;5033391;28;20029;-59
2021/08/20 07:11:55;;;;;;;6.43;3.13;;;;;;;20.57;100.00;94621.06;5032454;28;20507;-59
2021/08/20 07:14:23;;;;;;;4.90;3.17;;;;;;;20.63;100.00;94662.47;5033352;28;20029;-59
2021/08/20 07:16:48;;;;;;;4.13;2.97;;;;;;;20.37;100.00;94715.19;5033067;28;20030;-56
2021/08/20 07:19:17;;;;;;;7.50;3.17;;;;;;;20.22;100.00;94718.56;5033286;28;20051;-59
2021/08/20 07:21:45;;;;;;;5.63;2.95;;;;;;;20.07;100.00;94722.69;5033260;28;20029;-59
2021/08/20 07:24:11;;;;;;;5.13;2.97;;;;;;;20.25;100.00;94728.75;5033120;28;20032;-59
2021/08/20 07:26:54;;;;;;;6.40;3.35;;;;;;;20.34;100.00;94761.34;5033184;28;20021;-59
2021/08/20 07:29:20;;;;;;;5.75;3.53;;;;;;;20.56;100.00;94766.41;5031576;28;20025;-59
2021/08/20 07:31:45;;;;;;;4.55;3.40;;;;;;;20.78;100.00;94804.13;5033064;28;20029;-59
2021/08/20 07:34:16;;;;;;;6.85;3.63;;;;;;;21.00;100.00;94853.88;5032128;28;20025;-59
2021/08/20 07:36:42;;;;;;;6.25;3.70;;;;;;;21.08;100.00;94899.28;5032711;28;20026;-57
2021/08/20 07:39:07;;;;;;;5.72;3.20;;;;;;;21.19;100.00;94930.44;5030975;28;20033;-59
2021/08/20 07:41:35;;;;;;;5.57;3.90;;;;;;;21.34;100.00;94959.78;5030413;28;20033;-57
2021/08/20 07:44:00;;;;;;;5.28;3.38;;;;;;;21.60;100.00;94959.53;5030601;28;20033;-58
2021/08/20 07:46:29;;;;;;;5.20;3.90;;;;;;;21.93;100.00;95005.81;5031790;28;20028;-59
2021/08/20 07:49:12;;;;;;;5.28;3.70;;;;;;;22.10;100.00;95042.22;5029231;28;20164;-56
2021/08/20 07:51:38;;;;;;;6.78;3.72;;;;;;;22.06;100.00;95074.84;5030469;28;20022;-56
2021/08/20 07:54:06;;;;;;;5.38;3.53;;;;;;;22.18;100.00;95071.34;5030205;28;20132;-55
2021/08/20 07:56:31;;;;;;;8.18;3.88;;;;;;;22.31;100.00;95066.69;5031290;28;20021;-56
2021/08/20 07:58:57;;;;;;;6.95;4.15;;;;;;;22.57;100.00;95108.09;5030978;28;20072;-59
2021/08/20 08:01:22;;;;;;;6.40;5.00;;;;;;;22.65;100.00;95133.69;5031645;28;20030;-57
2021/08/20 08:03:48;;;;;;;5.45;4.05;;;;;;;22.89;100.00;95105.63;5031544;28;20041;-58
2021/08/20 08:06:13;;;;;;;5.35;4.00;;;;;;;23.09;100.00;95160.13;5031158;28;20037;-58
2021/08/20 08:08:40;;;;;;;7.15;3.63;;;;;;;23.23;100.00;95192.59;5030848;28;20476;-59
2021/08/20 08:11:07;;;;;;;6.88;4.47;;;;;;;23.28;100.00;95207.97;5031568;28;20035;-60
2021/08/20 08:13:33;;;;;;;6.35;4.22;;;;;;;23.56;100.00;95208.06;5031752;28;20041;-58
2021/08/20 08:15:58;;;;;;;5.38;3.88;;;;;;;23.79;100.00;95238.47;5031547;28;20025;-60
2021/08/20 08:18:24;;;;;;;6.05;3.95;;;;;;;24.05;100.00;95240.78;5031343;28;20087;-57
2021/08/20 08:20:51;;;;;;;5.65;4.47;;;;;;;24.05;100.00;95274.41;5030253;28;20033;-60
2021/08/20 08:23:17;;;;;;;5.32;4.10;;;;;;;24.06;100.00;95272.47;5031386;28;20109;-60
2021/08/20 08:25:45;;;;;;;6.88;4.07;;;;;;;24.22;100.00;95244.03;5031525;28;20053;-61
2021/08/20 08:28:10;;;;;;;8.45;4.25;;;;;;;24.23;100.00;95299.56;5031493;28;20083;-59
2021/08/20 08:30:38;;;;;;;6.82;4.18;;;;;;;24.41;100.00;95268.03;5029352;28;20026;-60
2021/08/20 08:33:05;;;;;;;9.18;4.95;;;;;;;24.31;100.00;95292.38;5029737;28;20033;-61
2021/08/20 08:35:31;;;;;;;7.72;5.13;;;;;;;24.39;100.00;95296.91;5029671;28;20037;-60
2021/08/20 08:38:03;;;;;;;6.47;5.00;;;;;;;24.45;100.00;95301.81;5031059;28;20062;-60
2021/08/20 08:40:29;;;;;;;7.38;5.45;;;;;;;24.56;100.00;95321.28;5030783;28;20040;-60
2021/08/20 08:42:57;;;;;;;8.20;5.32;;;;;;;24.86;100.00;95308.81;5030854;28;20419;-60
2021/08/20 08:45:25;;;;;;;7.95;5.50;;;;;;;25.11;100.00;95334.19;5029195;28;20045;-58
2021/08/20 08:47:54;;;;;;;7.53;5.65;;;;;;;25.34;100.00;95350.81;5029065;28;20431;-61
2021/08/20 08:50:20;;;;;;;7.72;6.07;;;;;;;25.24;100.00;95354.09;5030356;28;20484;-59
2021/08/20 08:52:55;;;;;;;7.57;5.75;;;;;;;24.81;100.00;95311.81;5029760;28;20029;-61
2021/08/20 08:55:24;;;;;;;9.45;6.22;;;;;;;24.52;100.00;95298.47;5031919;28;20048;-61
2021/08/20 08:57:55;;;;;;;8.82;6.40;;;;;;;24.61;100.00;95310.06;5031664;28;20048;-62
2021/08/20 09:00:51;;;;;;;7.53;6.22;;;;;;;24.63;100.00;95309.72;5031951;28;20026;-62
2021/08/20 09:03:28;;;;;;;7.68;6.10;;;;;;;24.73;100.00;95314.69;4965362;28;20380;-62
2021/08/20 09:05:58;;;;;;;10.43;5.82;;;;;;;24.66;100.00;95301.63;5035812;28;20029;-62
2021/08/20 09:08:27;;;;;;;10.20;6.57;;;;;;;24.56;100.00;95277.47;5034298;28;20037;-62
2021/08/20 09:11:01;;;;;;;9.50;6.85;;;;;;;24.39;100.00;95288.72;5035731;28;20033;-62
2021/08/20 09:13:27;;;;;;;8.27;6.78;;;;;;;24.25;100.00;95298.06;5034242;28;20029;-62
2021/08/20 09:16:06;;;;;;;9.57;6.57;;;;;;;24.31;100.00;95275.94;5035514;28;20021;-62
2021/08/20 09:18:37;;;;;;;9.00;6.45;;;;;;;24.31;100.00;95281.44;5035369;28;20076;-61
2021/08/20 09:21:03;;;;;;;8.60;5.72;;;;;;;24.65;100.00;95269.09;5035457;28;20048;-62
2021/08/20 09:23:29;;;;;;;8.27;5.70;;;;;;;25.04;100.00;95281.91;5035392;28;20068;-62
2021/08/20 09:26:02;;;;;;;7.25;6.47;;;;;;;25.11;100.00;95320.47;5033805;28;20056;-62
2021/08/20 09:28:31;;;;;;;10.70;6.47;;;;;;;25.44;100.00;95346.78;5035314;28;20108;-62
2021/08/20 09:31:02;;;;;;;8.43;6.10;;;;;;;25.68;100.00;95338.34;5033940;28;20097;-62
2021/08/20 09:33:32;;;;;;;10.20;6.55;;;;;;;25.99;100.00;95350.47;5035585;28;20022;-61
2021/08/20 09:36:08;;;;;;;9.40;6.85;;;;;;;26.26;100.00;95396.19;5034971;28;20026;-61
2021/08/20 09:38:46;;;;;;;9.30;6.50;;;;;;;26.67;100.00;95399.50;5034954;28;20369;-61
2021/08/20 09:41:20;;;;;;;12.80;7.22;;;;;;;26.80;100.00;95414.69;5033823;28;20026;-61
2021/08/20 09:43:55;;;;;;;9.40;6.50;;;;;;;27.01;100.00;95447.31;5034224;28;20056;-61
2021/08/20 09:46:23;;;;;;;12.20;6.47;;;;;;;27.24;100.00;95452.91;5034844;28;20044;-61
2021/08/20 09:49:06;;;;;;;9.43;6.75;;;;;;;27.40;100.00;95488.63;5034451;28;20193;-61
2021/08/20 09:51:50;;;;;;;8.80;5.70;;;;;;;26.62;100.00;95473.19;5033550;28;20415;-61
2021/08/20 09:54:26;;;;;;;8.95;6.97;;;;;;;26.58;100.00;95443.66;5038330;28;20798;-62
2021/08/20 09:56:56;;;;;;;9.15;6.57;;;;;;;26.59;100.00;95447.19;5034683;28;20389;-62
2021/08/20 09:59:27;;;;;;;9.63;6.82;;;;;;;26.65;100.00;95467.75;5033522;28;20033;-61
2021/08/20 10:01:57;;;;;;;8.20;6.97;;;;;;;26.47;100.00;95466.53;5034598;28;20021;-62
2021/08/20 10:04:24;;;;;;;8.68;7.28;;;;;;;26.55;100.00;95466.34;5033456;28;20029;-62
2021/08/20 10:06:51;;;;;;;9.13;7.30;;;;;;;26.95;100.00;95470.78;5034508;28;20021;-61
2021/08/20 10:09:19;;;;;;;8.20;6.70;;;;;;;27.14;100.00;95481.81;5033275;28;20060;-60
2021/08/20 10:11:49;;;;;;;8.73;6.25;;;;;;;26.86;100.00;95492.16;5034278;28;20108;-59
2021/08/20 10:14:19;;;;;;;9.48;6.63;;;;;;;26.32;100.00;95454.41;5033283;28;20029;-62
2021/08/20 10:16:48;;;;;;;8.00;6.10;;;;;;;25.94;100.00;95438.56;5034237;28;20022;-61
2021/08/20 10:19:16;;;;;;;11.95;7.50;;;;;;;25.54;100.00;95430.47;5034227;28;20112;-61
2021/08/20 10:21:44;;;;;;;12.00;6.43;;;;;;;25.30;100.00;95390.28;5034117;28;20078;-61
2021/08/20 10:24:11;;;;;;;10.98;6.43;;;;;;;25.51;100.00;95403.72;5034102;28;20096;-61
2021/08/20 10:26:56;;;;;;;9.27;6.43;;;;;;;25.77;100.00;95390.34;5034341;28;20017;-62
2021/08/20 10:29:27;;;;;;;9.95;7.18;;;;;;;25.99;100.00;95417.16;5033021;28;20079;-60
2021/08/20 10:32:25;;;;;;;8.95;7.50;;;;;;;26.10;100.00;95444.06;5032994;28;20037;-61
2021/08/20 10:34:53;;;;;;;8.98;7.30;;;;;;;26.36;100.00;95455.28;4990064;28;20124;-60
2021/08/20 10:37:34;;;;;;;10.63;9.07;;;;;;;26.69;100.00;95487.84;5033885;28;20029;-62
2021/08/20 10:40:20;;;;;;;8.75;7.38;;;;;;;27.06;100.00;95471.03;5033860;28;20056;-60
2021/08/20 10:42:50;;;;;;;12.90;7.80;;;;;;;27.32;100.00;95495.91;5033663;28;20512;-60
2021/08/20 10:45:19;;;;;;;9.55;7.18;;;;;;;27.55;100.00;95506.97;5033630;28;20026;-61
2021/08/20 10:47:45;;;;;;;9.98;6.57;;;;;;;27.82;100.00;95494.19;5033815;28;20049;-53
2021/08/20 10:50:19;;;;;;;10.15;7.47;;;;;;;28.22;100.00;95531.44;5033557;28;20021;-54
2021/08/20 10:52:52;;;;;;;11.75;8.05;;;;;;;28.11;98.65;95544.22;5033647;28;20029;-56
2021/08/20 10:55:32;;;;;;;9.02;7.28;;;;;;;28.24;99.89;95542.91;5033793;28;20018;-55
2021/08/20 10:58:07;;;;;;;9.32;7.15;;;;;;;28.47;96.74;95563.03;5033589;28;20029;-57
2021/08/20 11:00:35;;;;;;;8.18;6.80;;;;;;;28.77;93.79;95571.41;5033628;28;20072;-56
2021/08/20 11:03:03;;;;;;;8.55;7.07;;;;;;;28.96;90.87;95581.53;5032237;28;20025;-56
2021/08/20 11:05:58;;;;;;;9.30;7.20;;;;;;;28.83;93.96;95574.63;5030759;28;20022;-55
2021/08/20 11:08:30;;;;;;;9.65;7.60;;;;;;;28.82;93.58;95573.03;5013681;28;20146;-57
2021/08/20 11:10:57;;;;;;;;;;;;;;;28.98;95.14;95565.44;5032832;28;20519;-56
2021/08/20 11:13:29;;;;;;;11.70;6.60;;;;;;;28.66;96.58;95559.41;5030230;28;19909;-52
2021/08/20 11:15:55;;;;;;;7.78;5.78;;;;;;;28.22;99.74;95553.47;5028974;28;20388;-58
2021/08/20 11:18:41;;;;;;;7.40;6.07;;;;;;;27.24;100.00;95529.94;5031953;28;20112;-52
2021/08/20 11:21:07;;;;;;;7.13;6.10;;;;;;;26.86;100.00;95531.44;5029693;28;20040;-58
2021/08/20 11:23:36;;;;;;;8.85;6.75;;;;;;;26.52;100.00;95519.28;5028330;28;20029;-56
2021/08/20 11:26:23;;;;;;;7.97;5.97;;;;;;;26.50;100.00;95485.88;5025965;28;20021;-54
2021/08/20 11:28:51;;;;;;;6.72;5.40;;;;;;;26.49;100.00;95505.47;5025289;28;20086;-55
2021/08/20 11:31:19;;;;;;;7.65;5.75;;;;;;;26.71;100.00;95510.31;5028279;28;20039;-53
2021/08/20 11:33:48;;;;;;;9.68;6.93;;;;;;;27.28;100.00;95543.78;5026140;28;20466;-56
2021/08/20 11:36:16;;;;;;;8.95;6.15;;;;;;;27.42;100.00;95536.59;5033293;28;20018;-55